createdAt,value
2019-02-25T00:00:36.795Z,2.39
2019-02-25T00:03:06.077Z,2.54
2019-02-25T00:05:35.074Z,2.67
2019-02-25T00:08:04.277Z,2.57
2019-02-25T00:10:33.554Z,2.56
2019-02-25T00:13:02.713Z,2.33
2019-02-25T00:15:31.954Z,2.30
2019-02-25T00:18:01.115Z,2.28
2019-02-25T00:20:30.314Z,2.28
2019-02-25T00:22:59.273Z,2.25
2019-02-25T00:25:28.440Z,2.28
2019-02-25T00:27:57.633Z,2.20
2019-02-25T00:30:26.954Z,1.99
2019-02-25T00:32:56.153Z,2.08
2019-02-25T00:35:25.354Z,2.04
2019-02-25T00:37:54.637Z,1.85
2019-02-25T00:40:23.768Z,1.95
2019-02-25T00:42:52.793Z,1.93
2019-02-25T00:45:21.914Z,1.95
2019-02-25T00:47:50.916Z,1.88
2019-02-25T00:50:23.812Z,1.89
2019-02-25T00:52:52.875Z,1.85
2019-02-25T00:55:21.873Z,1.83
2019-02-25T00:57:50.954Z,1.80
2019-02-25T01:00:24.233Z,1.77
2019-02-25T01:02:53.435Z,1.64
2019-02-25T01:05:22.594Z,1.86
2019-02-25T01:07:51.794Z,1.77
2019-02-25T01:10:21.593Z,1.83
2019-02-25T01:12:50.794Z,1.99
2019-02-25T01:15:19.995Z,2.07
2019-02-25T01:17:49.234Z,1.98
2019-02-25T01:20:19.035Z,2.02
2019-02-25T01:22:48.234Z,2.03
2019-02-25T01:25:18.756Z,1.88
2019-02-25T01:27:47.904Z,1.97
2019-02-25T01:30:19.514Z,1.97
2019-02-25T01:32:48.674Z,2.17
2019-02-25T01:35:17.994Z,2.12
2019-02-25T01:37:47.153Z,2.24
2019-02-25T01:40:16.557Z,2.39
2019-02-25T01:42:45.674Z,2.52
2019-02-25T01:45:16.975Z,2.52
2019-02-25T01:47:46.275Z,2.44
2019-02-25T01:50:15.433Z,2.48
2019-02-25T01:52:44.634Z,2.29
2019-02-25T01:55:16.923Z,2.07
2019-02-25T01:57:45.995Z,2.06
2019-02-25T02:00:16.837Z,2.00
2019-02-25T02:02:45.794Z,2.03
2019-02-25T02:05:15.120Z,2.11
2019-02-25T02:07:44.433Z,2.13
2019-02-25T02:10:18.036Z,1.94
2019-02-25T02:12:47.115Z,1.73
2019-02-25T02:15:17.706Z,1.62
2019-02-25T02:17:46.674Z,1.70
2019-02-25T02:20:17.245Z,1.29
2019-02-25T02:22:46.437Z,1.00
2019-02-25T02:25:15.956Z,0.88
2019-02-25T02:27:45.154Z,0.62
2019-02-25T02:30:16.674Z,0.81
2019-02-25T02:32:45.713Z,0.68
2019-02-25T02:35:14.914Z,0.63
2019-02-25T02:37:44.240Z,0.76
2019-02-25T02:40:14.274Z,0.66
2019-02-25T02:42:49.040Z,0.39
2019-02-25T02:45:23.716Z,0.58
2019-02-25T02:47:58.795Z,0.68
2019-02-25T02:50:27.925Z,0.68
2019-02-25T02:52:57.033Z,0.67
2019-02-25T02:55:26.161Z,0.62
2019-02-25T02:57:55.266Z,0.53
2019-02-25T03:00:24.360Z,0.40
2019-02-25T03:02:53.556Z,0.44
2019-02-25T03:05:22.714Z,0.58
2019-02-25T03:07:51.755Z,0.50
2019-02-25T03:10:20.994Z,0.56
2019-02-25T03:12:50.118Z,0.54
2019-02-25T03:15:23.398Z,0.50
2019-02-25T03:17:52.601Z,0.70
2019-02-25T03:20:21.794Z,0.63
2019-02-25T03:22:50.914Z,0.35
2019-02-25T03:25:20.279Z,0.43
2019-02-25T03:27:49.435Z,0.30
2019-02-25T03:30:22.494Z,0.33
2019-02-25T03:32:52.674Z,0.23
2019-02-25T03:35:21.955Z,0.10
2019-02-25T03:37:51.036Z,0.01
2019-02-25T03:40:22.717Z,0.07
2019-02-25T03:42:51.766Z,0.23
2019-02-25T03:45:21.686Z,0.29
2019-02-25T03:47:50.881Z,0.42
2019-02-25T03:50:20.114Z,0.49
2019-02-25T03:52:49.194Z,0.63
2019-02-25T03:55:21.967Z,0.79
2019-02-25T03:57:51.401Z,0.70
2019-02-25T04:00:27.481Z,0.63
2019-02-25T04:02:56.676Z,0.59
2019-02-25T04:05:25.768Z,0.58
2019-02-25T04:07:54.993Z,0.64
2019-02-25T04:10:24.078Z,0.63
2019-02-25T04:12:53.273Z,0.53
2019-02-25T04:15:23.955Z,0.43
2019-02-25T04:17:54.359Z,0.53
2019-02-25T04:20:23.518Z,0.54
2019-02-25T04:22:52.637Z,0.56
2019-02-25T04:25:21.659Z,0.57
2019-02-25T04:27:50.874Z,0.67
2019-02-25T04:30:20.074Z,0.69
2019-02-25T04:32:49.197Z,0.61
2019-02-25T04:35:18.251Z,0.42
2019-02-25T04:37:47.314Z,0.32
2019-02-25T04:40:16.436Z,0.23
2019-02-25T04:42:45.514Z,0.22
2019-02-25T04:45:16.965Z,0.10
2019-02-25T04:47:46.116Z,0.15
2019-02-25T04:50:15.197Z,0.15
2019-02-25T04:52:44.435Z,0.12
2019-02-25T04:55:14.762Z,-0.01
2019-02-25T04:57:43.833Z,0.11
2019-02-25T05:00:27.139Z,-0.05
2019-02-25T05:02:56.277Z,-0.07
2019-02-25T05:05:25.475Z,-0.10
2019-02-25T05:07:54.674Z,-0.01
2019-02-25T05:10:23.841Z,0.01
2019-02-25T05:13:03.634Z,0.04
2019-02-25T05:15:34.195Z,-0.01
2019-02-25T05:18:03.361Z,-0.10
2019-02-25T05:20:32.595Z,-0.07
2019-02-25T05:23:01.878Z,0.01
2019-02-25T05:25:31.034Z,-0.04
2019-02-25T05:28:00.274Z,-0.26
2019-02-25T05:30:29.435Z,-0.30
2019-02-25T05:32:58.594Z,-0.40
2019-02-25T05:35:27.514Z,-0.33
2019-02-25T05:37:56.592Z,-0.27
2019-02-25T05:40:25.937Z,-0.20
2019-02-25T05:42:55.035Z,-0.10
2019-02-25T05:45:25.233Z,0.03
2019-02-25T05:47:54.314Z,0.14
2019-02-25T05:50:23.511Z,0.34
2019-02-25T05:52:52.631Z,0.43
2019-02-25T05:55:21.592Z,0.33
2019-02-25T05:57:50.688Z,0.34
2019-02-25T06:00:25.720Z,0.19
2019-02-25T06:02:54.916Z,0.43
2019-02-25T06:05:23.995Z,0.60
2019-02-25T06:07:52.885Z,0.65
2019-02-25T06:10:21.994Z,0.63
2019-02-25T06:12:51.154Z,0.50
2019-02-25T06:15:20.916Z,0.58
2019-02-25T06:17:50.154Z,0.58
2019-02-25T06:20:19.354Z,0.56
2019-02-25T06:22:48.512Z,0.55
2019-02-25T06:25:18.093Z,0.63
2019-02-25T06:27:47.274Z,0.78
2019-02-25T06:30:18.605Z,0.98
2019-02-25T06:32:47.770Z,1.03
2019-02-25T06:35:16.900Z,1.23
2019-02-25T06:37:46.200Z,1.40
2019-02-25T06:40:17.163Z,1.54
2019-02-25T06:42:46.353Z,1.62
2019-02-25T06:45:20.234Z,1.75
2019-02-25T06:47:49.354Z,1.72
2019-02-25T06:50:18.354Z,1.77
2019-02-25T06:52:47.412Z,1.81
2019-02-25T06:55:17.955Z,1.79
2019-02-25T06:57:47.158Z,1.80
2019-02-25T07:00:17.913Z,1.93
2019-02-25T07:02:47.081Z,2.07
2019-02-25T07:05:18.194Z,2.11
2019-02-25T07:07:58.239Z,2.34
2019-02-25T07:10:40.956Z,2.42
2019-02-25T07:13:11.754Z,2.62
2019-02-25T07:15:45.154Z,2.72
2019-02-25T07:18:18.757Z,2.80
2019-02-25T07:21:05.475Z,2.90
2019-02-25T07:23:52.353Z,2.93
2019-02-25T07:26:27.585Z,3.06
2019-02-25T07:29:14.625Z,3.32
2019-02-25T07:32:01.571Z,3.63
2019-02-25T07:34:38.276Z,3.90
2019-02-25T07:37:09.277Z,4.03
2019-02-25T07:39:48.714Z,4.20
2019-02-25T07:42:34.516Z,4.45
2019-02-25T07:45:11.595Z,4.67
2019-02-25T07:47:42.234Z,4.96
2019-02-25T07:50:22.115Z,5.22
2019-02-25T07:53:05.000Z,5.38
2019-02-25T07:55:35.635Z,5.53
2019-02-25T07:58:18.316Z,5.66
2019-02-25T08:00:54.314Z,5.80
2019-02-25T08:03:33.793Z,5.82
2019-02-25T08:06:04.472Z,5.78
2019-02-25T08:08:40.976Z,5.82
2019-02-25T08:11:11.631Z,5.90
2019-02-25T08:13:42.312Z,6.02
2019-02-25T08:16:16.071Z,6.11
2019-02-25T08:18:55.832Z,6.27
2019-02-25T08:21:32.351Z,6.44
2019-02-25T08:24:09.232Z,6.48
2019-02-25T08:26:52.085Z,6.37
2019-02-25T08:29:22.726Z,6.44
2019-02-25T08:31:53.323Z,6.48
2019-02-25T08:34:24.046Z,6.50
2019-02-25T08:37:06.726Z,6.61
2019-02-25T08:39:43.245Z,6.58
2019-02-25T08:42:14.123Z,6.65
2019-02-25T08:44:47.246Z,6.63
2019-02-25T08:47:17.905Z,6.78
2019-02-25T08:49:51.185Z,6.87
2019-02-25T08:52:20.110Z,6.94
2019-02-25T08:54:49.129Z,6.97
2019-02-25T08:57:18.205Z,7.04
2019-02-25T08:59:47.087Z,6.97
2019-02-25T09:02:16.310Z,7.12
2019-02-25T09:04:45.248Z,7.30
2019-02-25T09:07:14.184Z,7.39
2019-02-25T09:09:43.106Z,7.46
2019-02-25T09:12:12.026Z,7.57
2019-02-25T09:14:41.013Z,7.76
2019-02-25T09:17:10.085Z,8.01
2019-02-25T09:19:38.966Z,8.42
2019-02-25T09:22:07.945Z,8.75
2019-02-25T09:24:36.985Z,9.27
2019-02-25T09:27:06.024Z,10.19
2019-02-25T09:29:35.007Z,10.42
2019-02-25T09:32:03.945Z,10.53
2019-02-25T09:34:32.827Z,10.40
2019-02-25T09:37:01.717Z,10.29
2019-02-25T09:39:30.684Z,10.07
2019-02-25T09:41:59.576Z,10.21
2019-02-25T09:44:28.468Z,10.15
2019-02-25T09:46:57.393Z,10.01
2019-02-25T09:49:26.269Z,9.68
2019-02-25T09:51:55.166Z,9.75
2019-02-25T09:54:24.193Z,9.87
2019-02-25T09:56:53.146Z,9.73
2019-02-25T09:59:22.025Z,9.68
2019-02-25T10:01:50.925Z,9.63
2019-02-25T10:04:19.894Z,9.88
2019-02-25T10:06:48.773Z,10.03
2019-02-25T10:09:17.677Z,9.91
2019-02-25T10:11:48.700Z,9.59
2019-02-25T10:14:17.304Z,9.85
2019-02-25T10:16:46.326Z,9.67
2019-02-25T10:19:15.404Z,9.61
2019-02-25T10:21:44.295Z,9.43
2019-02-25T10:24:13.295Z,9.99
2019-02-25T10:26:42.853Z,10.22
2019-02-25T10:29:11.913Z,9.93
2019-02-25T10:31:41.704Z,9.59
2019-02-25T10:34:11.646Z,9.47
2019-02-25T10:36:40.606Z,10.02
2019-02-25T10:39:13.042Z,10.28
2019-02-25T10:41:41.993Z,10.45
2019-02-25T10:44:10.935Z,10.88
2019-02-25T10:46:40.835Z,10.83
2019-02-25T10:49:11.672Z,10.89
2019-02-25T10:51:42.947Z,11.00
2019-02-25T10:54:11.653Z,11.68
2019-02-25T10:56:43.696Z,11.36
2019-02-25T10:59:12.725Z,11.22
2019-02-25T11:01:43.303Z,10.64
2019-02-25T11:04:12.496Z,10.52
2019-02-25T11:06:41.555Z,10.65
2019-02-25T11:09:16.364Z,10.08
2019-02-25T11:11:46.376Z,10.57
2019-02-25T11:14:15.405Z,10.51
2019-02-25T11:16:46.023Z,10.43
2019-02-25T11:19:15.494Z,10.32
2019-02-25T11:21:44.555Z,10.33
2019-02-25T11:24:14.472Z,11.02
2019-02-25T11:26:43.914Z,11.73
2019-02-25T11:29:13.778Z,12.06
2019-02-25T11:31:45.222Z,12.08
2019-02-25T11:34:14.713Z,12.40
2019-02-25T11:36:43.895Z,13.38
2019-02-25T11:39:13.807Z,13.94
2019-02-25T11:41:42.814Z,13.32
2019-02-25T11:44:11.715Z,13.61
2019-02-25T11:46:40.976Z,12.58
2019-02-25T11:49:10.014Z,12.94
2019-02-25T11:51:39.014Z,12.19
2019-02-25T11:54:08.014Z,12.45
2019-02-25T11:56:36.973Z,12.17
2019-02-25T11:59:06.033Z,12.86
2019-02-25T12:01:35.029Z,12.80
2019-02-25T12:04:04.074Z,12.57
2019-02-25T12:06:32.993Z,12.51
2019-02-25T12:09:01.986Z,12.78
2019-02-25T12:11:30.858Z,12.73
2019-02-25T12:13:59.753Z,12.83
2019-02-25T12:16:28.853Z,13.09
2019-02-25T12:18:57.720Z,13.04
2019-02-25T12:21:26.629Z,12.50
2019-02-25T12:23:55.614Z,12.34
2019-02-25T12:26:25.808Z,12.18
2019-02-25T12:28:54.734Z,12.79
2019-02-25T12:31:23.855Z,12.99
2019-02-25T12:33:52.785Z,13.21
2019-02-25T12:36:21.784Z,13.16
2019-02-25T12:38:50.746Z,13.01
2019-02-25T12:41:19.646Z,12.90
2019-02-25T12:43:48.505Z,12.82
2019-02-25T12:46:17.434Z,12.46
2019-02-25T12:48:46.365Z,11.88
2019-02-25T12:51:15.245Z,11.81
2019-02-25T12:53:44.166Z,11.86
2019-02-25T12:56:13.150Z,11.97
2019-02-25T12:58:42.044Z,12.15
2019-02-25T13:01:10.965Z,12.85
2019-02-25T13:03:39.848Z,13.58
2019-02-25T13:06:08.727Z,13.96
2019-02-25T13:08:37.665Z,14.37
2019-02-25T13:11:06.665Z,14.73
2019-02-25T13:13:35.706Z,15.48
2019-02-25T13:16:04.609Z,16.08
2019-02-25T13:18:33.486Z,16.44
2019-02-25T13:21:02.346Z,16.36
2019-02-25T13:23:31.305Z,16.51
2019-02-25T13:26:07.271Z,16.56
2019-02-25T13:28:33.117Z,17.08
2019-02-25T13:31:03.267Z,16.88
2019-02-25T13:33:32.206Z,17.24
2019-02-25T13:36:01.166Z,17.20
2019-02-25T13:38:30.188Z,16.90
2019-02-25T13:40:59.158Z,17.02
2019-02-25T13:43:28.107Z,16.39
2019-02-25T13:45:57.125Z,15.11
2019-02-25T13:48:26.086Z,14.60
2019-02-25T13:50:55.045Z,14.31
2019-02-25T13:53:24.094Z,14.60
2019-02-25T13:55:53.046Z,14.80
2019-02-25T13:58:22.094Z,15.09
2019-02-25T14:00:51.207Z,15.26
2019-02-25T14:03:20.169Z,15.47
2019-02-25T14:05:49.114Z,15.49
2019-02-25T14:08:18.126Z,15.67
2019-02-25T14:10:47.374Z,15.19
2019-02-25T14:13:16.586Z,14.50
2019-02-25T14:15:45.666Z,14.26
2019-02-25T14:18:14.747Z,14.09
2019-02-25T14:20:44.285Z,14.26
2019-02-25T14:23:13.394Z,14.08
2019-02-25T14:25:42.438Z,13.85
2019-02-25T14:28:11.399Z,13.60
2019-02-25T14:30:40.486Z,13.12
2019-02-25T14:33:09.465Z,12.98
2019-02-25T14:35:38.506Z,13.33
2019-02-25T14:38:15.916Z,13.21
2019-02-25T14:40:44.838Z,13.02
2019-02-25T14:43:15.677Z,12.61
2019-02-25T14:45:46.613Z,12.12
2019-02-25T14:48:20.364Z,12.00
2019-02-25T14:50:46.545Z,12.08
2019-02-25T14:53:15.731Z,12.23
2019-02-25T14:55:46.923Z,12.50
2019-02-25T14:58:17.423Z,12.87
2019-02-25T15:00:46.235Z,13.09
2019-02-25T15:03:15.287Z,13.22
2019-02-25T15:05:44.547Z,13.30
2019-02-25T15:08:13.545Z,13.57
2019-02-25T15:10:43.006Z,13.46
2019-02-25T15:13:12.350Z,12.87
2019-02-25T15:15:43.464Z,12.45
2019-02-25T15:18:14.354Z,12.19
2019-02-25T15:20:43.454Z,12.08
2019-02-25T15:23:14.920Z,11.91
2019-02-25T15:25:45.416Z,11.85
2019-02-25T15:28:15.656Z,11.61
2019-02-25T15:30:44.627Z,11.42
2019-02-25T15:33:13.573Z,11.40
2019-02-25T15:35:43.849Z,11.37
2019-02-25T15:38:13.026Z,11.15
2019-02-25T15:40:42.694Z,11.04
2019-02-25T15:43:17.715Z,10.82
2019-02-25T15:45:46.887Z,10.68
2019-02-25T15:48:21.098Z,10.55
2019-02-25T15:50:57.373Z,10.55
2019-02-25T15:53:27.208Z,10.39
2019-02-25T15:55:59.238Z,10.21
2019-02-25T15:58:27.400Z,10.27
2019-02-25T16:00:56.726Z,10.32
2019-02-25T16:03:26.850Z,10.30
2019-02-25T16:05:59.295Z,10.22
2019-02-25T16:08:28.656Z,10.06
2019-02-25T16:10:58.464Z,9.83
2019-02-25T16:13:28.786Z,9.81
2019-02-25T16:15:57.949Z,9.65
2019-02-25T16:18:27.820Z,9.46
2019-02-25T16:20:57.498Z,9.34
2019-02-25T16:23:31.817Z,9.15
2019-02-25T16:25:59.925Z,9.05
2019-02-25T16:28:31.069Z,9.03
2019-02-25T16:31:00.106Z,8.96
2019-02-25T16:33:30.822Z,8.92
2019-02-25T16:36:01.270Z,8.94
2019-02-25T16:38:31.866Z,8.72
2019-02-25T16:41:03.708Z,8.69
2019-02-25T16:43:32.785Z,8.74
2019-02-25T16:46:04.295Z,8.69
2019-02-25T16:48:33.011Z,8.54
2019-02-25T16:51:02.729Z,8.44
2019-02-25T16:53:36.980Z,8.60
2019-02-25T16:56:05.680Z,8.51
2019-02-25T16:58:36.450Z,8.58
2019-02-25T17:01:08.047Z,8.64
2019-02-25T17:03:39.211Z,8.60
2019-02-25T17:06:09.167Z,8.53
2019-02-25T17:08:39.035Z,8.35
2019-02-25T17:11:08.406Z,8.20
2019-02-25T17:13:39.719Z,8.29
2019-02-25T17:16:17.926Z,8.33
2019-02-25T17:18:39.746Z,8.29
2019-02-25T17:21:09.006Z,8.30
2019-02-25T17:23:38.782Z,8.21
2019-02-25T17:26:10.586Z,8.24
2019-02-25T17:28:39.167Z,8.11
2019-02-25T17:31:09.027Z,8.18
2019-02-25T17:33:39.265Z,8.18
2019-02-25T17:36:09.988Z,8.07
2019-02-25T17:38:40.691Z,8.09
2019-02-25T17:41:11.214Z,8.12
2019-02-25T17:43:43.024Z,8.00
2019-02-25T17:46:14.045Z,7.76
2019-02-25T17:48:43.106Z,7.76
2019-02-25T17:51:16.194Z,7.80
2019-02-25T17:53:46.091Z,7.78
2019-02-25T17:56:18.119Z,7.81
2019-02-25T17:58:47.245Z,7.69
2019-02-25T18:01:17.377Z,7.82
2019-02-25T18:03:48.224Z,7.78
2019-02-25T18:06:17.585Z,7.69
2019-02-25T18:08:46.825Z,7.73
2019-02-25T18:11:17.932Z,7.70
2019-02-25T18:13:48.818Z,7.74
2019-02-25T18:16:18.972Z,7.75
2019-02-25T18:18:50.705Z,7.73
2019-02-25T18:21:19.285Z,7.64
2019-02-25T18:23:49.370Z,7.79
2019-02-25T18:26:19.444Z,7.73
2019-02-25T18:28:50.317Z,7.66
2019-02-25T18:31:19.577Z,7.78
2019-02-25T18:33:51.121Z,7.71
2019-02-25T18:36:21.844Z,7.67
2019-02-25T18:38:52.785Z,7.62
2019-02-25T18:41:24.876Z,7.47
2019-02-25T18:43:54.046Z,7.44
2019-02-25T18:46:23.817Z,7.37
2019-02-25T18:48:54.226Z,7.33
2019-02-25T18:51:24.569Z,7.90
2019-02-25T18:53:55.462Z,8.10
2019-02-25T18:56:25.506Z,7.75
2019-02-25T18:59:07.347Z,7.56
2019-02-25T19:01:26.837Z,7.44
2019-02-25T19:03:56.919Z,7.34
2019-02-25T19:06:29.218Z,7.35
2019-02-25T19:08:58.351Z,7.36
2019-02-25T19:11:28.240Z,7.35
2019-02-25T19:14:01.799Z,7.34
2019-02-25T19:16:28.604Z,7.34
2019-02-25T19:18:57.825Z,7.28
2019-02-25T19:21:27.732Z,7.32
2019-02-25T19:23:58.007Z,7.37
2019-02-25T19:26:27.325Z,7.39
2019-02-25T19:28:58.613Z,7.42
2019-02-25T19:31:27.586Z,7.38
2019-02-25T19:34:00.089Z,7.53
2019-02-25T19:36:29.718Z,7.48
2019-02-25T19:38:59.129Z,7.54
2019-02-25T19:41:29.830Z,7.54
2019-02-25T19:44:01.705Z,7.57
2019-02-25T19:46:30.325Z,7.56
2019-02-25T19:49:01.244Z,7.61
2019-02-25T19:51:30.546Z,7.72
2019-02-25T19:54:02.683Z,7.77
2019-02-25T19:56:30.884Z,7.80
2019-02-25T19:59:00.749Z,7.83
2019-02-25T20:01:30.993Z,7.84
2019-02-25T20:04:04.373Z,7.90
2019-02-25T20:06:31.466Z,7.93
2019-02-25T20:09:00.745Z,7.94
2019-02-25T20:11:30.225Z,7.85
2019-02-25T20:14:01.591Z,7.85
2019-02-25T20:16:32.416Z,7.84
2019-02-25T20:19:02.560Z,7.84
2019-02-25T20:21:32.705Z,8.00
2019-02-25T20:24:01.895Z,7.91
2019-02-25T20:26:32.629Z,7.99
2019-02-25T20:29:04.003Z,7.96
2019-02-25T20:31:32.963Z,7.94
2019-02-25T20:34:02.277Z,7.90
2019-02-25T20:36:32.701Z,7.82
2019-02-25T20:39:02.082Z,7.80
2019-02-25T20:41:31.305Z,7.83
2019-02-25T20:44:01.189Z,7.85
2019-02-25T20:46:32.745Z,7.84
2019-02-25T20:49:02.414Z,7.78
2019-02-25T20:51:33.868Z,7.76
2019-02-25T20:54:03.226Z,7.78
2019-02-25T20:56:33.265Z,7.67
2019-02-25T20:59:05.144Z,7.57
2019-02-25T21:01:37.158Z,7.55
2019-02-25T21:04:04.545Z,7.42
2019-02-25T21:06:35.873Z,7.40
2019-02-25T21:09:06.665Z,7.28
2019-02-25T21:11:36.635Z,7.20
2019-02-25T21:14:13.603Z,7.23
2019-02-25T21:17:03.003Z,7.14
2019-02-25T21:19:33.283Z,7.03
2019-02-25T21:22:04.312Z,6.95
2019-02-25T21:24:35.311Z,6.88
2019-02-25T21:27:06.396Z,6.81
2019-02-25T21:29:38.306Z,6.79
2019-02-25T21:32:06.244Z,6.79
2019-02-25T21:34:35.345Z,6.71
2019-02-25T21:37:04.577Z,6.60
2019-02-25T21:39:34.497Z,6.59
2019-02-25T21:42:06.391Z,6.52
2019-02-25T21:44:35.989Z,6.44
2019-02-25T21:47:06.336Z,6.47
2019-02-25T21:49:36.505Z,6.47
2019-02-25T21:52:08.315Z,6.40
2019-02-25T21:54:37.426Z,6.32
2019-02-25T21:57:08.019Z,6.29
2019-02-25T21:59:38.617Z,6.22
2019-02-25T22:02:07.605Z,6.20
2019-02-25T22:04:38.476Z,6.14
2019-02-25T22:07:07.156Z,6.10
2019-02-25T22:09:41.188Z,6.10
2019-02-25T22:12:06.691Z,6.02
2019-02-25T22:14:35.605Z,5.97
2019-02-25T22:17:04.446Z,6.02
2019-02-25T22:19:35.007Z,5.98
2019-02-25T22:22:04.937Z,5.97
2019-02-25T22:24:36.290Z,5.94
2019-02-25T22:27:05.246Z,5.95
2019-02-25T22:29:36.593Z,5.93
2019-02-25T22:32:06.395Z,5.90
2019-02-25T22:34:35.625Z,5.95
2019-02-25T22:37:04.683Z,5.99
2019-02-25T22:39:33.565Z,5.99
2019-02-25T22:42:03.570Z,5.98
2019-02-25T22:44:33.541Z,6.06
2019-02-25T22:47:05.155Z,6.03
2019-02-25T22:49:33.343Z,5.97
2019-02-25T22:52:02.924Z,5.92
2019-02-25T22:54:32.874Z,5.97
2019-02-25T22:57:01.745Z,5.97
2019-02-25T22:59:30.647Z,5.96
2019-02-25T23:01:59.543Z,5.97
2019-02-25T23:04:28.429Z,5.93
2019-02-25T23:06:57.349Z,5.96
2019-02-25T23:09:26.369Z,6.04
2019-02-25T23:11:55.643Z,6.04
2019-02-25T23:14:24.562Z,6.09
2019-02-25T23:16:53.584Z,6.13
2019-02-25T23:19:22.609Z,6.13
2019-02-25T23:21:51.573Z,6.12
2019-02-25T23:24:21.772Z,6.13
2019-02-25T23:26:52.905Z,6.07
2019-02-25T23:29:22.473Z,6.15
2019-02-25T23:31:52.003Z,6.15
2019-02-25T23:34:22.688Z,6.14
2019-02-25T23:36:53.987Z,6.16
2019-02-25T23:39:22.264Z,6.14
2019-02-25T23:41:51.127Z,6.13
2019-02-25T23:44:22.054Z,6.12
2019-02-25T23:46:55.394Z,6.10
2019-02-25T23:49:27.263Z,6.12
2019-02-25T23:51:52.065Z,6.04
2019-02-25T23:54:23.059Z,6.04
2019-02-25T23:56:52.541Z,6.11
2019-02-25T23:59:24.302Z,6.00
